createdAt,value
2017-10-03T00:00:13.907Z,968.92
2017-10-03T00:01:13.902Z,968.89
2017-10-03T00:02:13.895Z,968.84
2017-10-03T00:03:13.892Z,968.89
2017-10-03T00:04:13.886Z,968.84
2017-10-03T00:05:13.880Z,968.84
2017-10-03T00:06:13.873Z,968.85
2017-10-03T00:07:13.870Z,968.86
2017-10-03T00:08:13.864Z,968.83
2017-10-03T00:09:13.859Z,968.83
2017-10-03T00:10:13.853Z,968.79
2017-10-03T00:11:13.847Z,968.78
2017-10-03T00:12:13.943Z,968.77
2017-10-03T00:13:13.838Z,968.73
2017-10-03T00:14:13.832Z,968.68
2017-10-03T00:15:13.978Z,968.72
2017-10-03T00:16:13.821Z,968.68
2017-10-03T00:17:13.817Z,968.66
2017-10-03T00:18:13.812Z,968.65
2017-10-03T00:19:13.806Z,968.6
2017-10-03T00:20:13.799Z,968.61
2017-10-03T00:21:13.794Z,968.65
2017-10-03T00:22:13.790Z,968.59
2017-10-03T00:23:13.784Z,968.58
2017-10-03T00:24:13.777Z,968.55
2017-10-03T00:25:13.782Z,968.56
2017-10-03T00:26:13.769Z,968.53
2017-10-03T00:27:13.763Z,968.55
2017-10-03T00:28:13.756Z,968.52
2017-10-03T00:29:13.751Z,968.52
2017-10-03T00:30:13.749Z,968.49
2017-10-03T00:31:13.739Z,968.51
2017-10-03T00:32:13.735Z,968.47
2017-10-03T00:33:13.729Z,968.48
2017-10-03T00:34:13.723Z,968.44
2017-10-03T00:35:13.721Z,968.45
2017-10-03T00:36:13.712Z,968.43
2017-10-03T00:37:13.830Z,968.41
2017-10-03T00:38:13.700Z,968.42
2017-10-03T00:39:13.696Z,968.44
2017-10-03T00:40:13.692Z,968.42
2017-10-03T00:41:13.687Z,968.38
2017-10-03T00:42:13.681Z,968.42
2017-10-03T00:43:13.675Z,968.36
2017-10-03T00:44:13.671Z,968.35
2017-10-03T00:45:13.665Z,968.37
2017-10-03T00:46:13.659Z,968.33
2017-10-03T00:47:13.653Z,968.36
2017-10-03T00:48:13.748Z,968.32
2017-10-03T00:49:13.743Z,968.31
2017-10-03T00:50:13.637Z,968.26
2017-10-03T00:51:13.632Z,968.29
2017-10-03T00:52:13.626Z,968.25
2017-10-03T00:53:13.771Z,968.25
2017-10-03T00:54:13.617Z,968.21
2017-10-03T00:55:13.611Z,968.24
2017-10-03T00:56:13.604Z,968.22
2017-10-03T00:57:13.599Z,968.24
2017-10-03T00:58:13.595Z,968.17
2017-10-03T00:59:13.589Z,968.16
2017-10-03T01:00:13.683Z,968.12
2017-10-03T01:01:13.678Z,968.11
2017-10-03T01:02:13.572Z,968.07
2017-10-03T01:03:13.667Z,968.06
2017-10-03T01:04:13.561Z,968.02
2017-10-03T01:05:13.556Z,968.05
2017-10-03T01:06:13.551Z,968
2017-10-03T01:07:13.547Z,968.03
2017-10-03T01:08:13.541Z,967.98
2017-10-03T01:09:13.534Z,968
2017-10-03T01:10:13.531Z,968.01
2017-10-03T01:11:13.625Z,967.95
2017-10-03T01:12:13.518Z,967.97
2017-10-03T01:13:13.514Z,967.93
2017-10-03T01:14:13.509Z,967.87
2017-10-03T01:15:13.503Z,967.9
2017-10-03T01:16:13.597Z,967.82
2017-10-03T01:17:13.491Z,967.73
2017-10-03T01:18:13.487Z,967.74
2017-10-03T01:19:13.481Z,967.7
2017-10-03T01:20:13.475Z,967.69
2017-10-03T01:21:13.470Z,967.64
2017-10-03T01:22:13.464Z,967.64
2017-10-03T01:23:13.459Z,967.68
2017-10-03T01:24:13.454Z,967.64
2017-10-03T01:25:13.448Z,967.56
2017-10-03T01:26:13.443Z,967.54
2017-10-03T01:27:13.438Z,967.57
2017-10-03T01:28:13.531Z,967.58
2017-10-03T01:29:13.425Z,967.58
2017-10-03T01:30:13.420Z,967.52
2017-10-03T01:31:13.415Z,967.51
2017-10-03T01:32:13.510Z,967.53
2017-10-03T01:33:13.403Z,967.53
2017-10-03T01:34:13.397Z,967.48
2017-10-03T01:35:13.392Z,967.48
2017-10-03T01:36:13.387Z,967.47
2017-10-03T01:37:13.381Z,967.46
2017-10-03T01:38:13.376Z,967.48
2017-10-03T01:39:13.371Z,967.44
2017-10-03T01:40:13.363Z,967.45
2017-10-03T01:41:13.458Z,967.48
2017-10-03T01:42:13.354Z,967.43
2017-10-03T01:43:13.349Z,967.35
2017-10-03T01:44:13.443Z,967.34
2017-10-03T01:45:13.336Z,967.33
2017-10-03T01:46:13.330Z,967.34
2017-10-03T01:47:13.327Z,967.28
2017-10-03T01:48:13.321Z,967.23
2017-10-03T01:49:13.315Z,967.19
2017-10-03T01:50:13.309Z,967.19
2017-10-03T01:51:13.303Z,967.17
2017-10-03T01:52:13.298Z,967.19
2017-10-03T01:53:13.292Z,967.11
2017-10-03T01:54:13.287Z,967.1
2017-10-03T01:55:13.282Z,967.05
2017-10-03T01:56:13.277Z,967.02
2017-10-03T01:57:13.270Z,967.01
2017-10-03T01:58:13.264Z,967
2017-10-03T01:59:13.260Z,966.98
2017-10-03T02:00:13.255Z,966.96
2017-10-03T02:01:13.250Z,966.92
2017-10-03T02:02:13.244Z,966.91
2017-10-03T02:03:13.237Z,966.85
2017-10-03T02:04:13.332Z,966.88
2017-10-03T02:05:13.227Z,966.79
2017-10-03T02:06:13.220Z,966.75
2017-10-03T02:07:13.215Z,966.67
2017-10-03T02:08:13.211Z,966.68
2017-10-03T02:09:13.203Z,966.63
2017-10-03T02:10:13.200Z,966.6
2017-10-03T02:11:13.194Z,966.62
2017-10-03T02:12:13.188Z,966.55
2017-10-03T02:13:13.182Z,966.54
2017-10-03T02:14:13.178Z,966.54
2017-10-03T02:15:13.271Z,966.47
2017-10-03T02:16:13.168Z,966.47
2017-10-03T02:17:13.160Z,966.43
2017-10-03T02:18:13.156Z,966.4
2017-10-03T02:19:13.150Z,966.35
2017-10-03T02:20:13.145Z,966.36
2017-10-03T02:21:13.238Z,966.35
2017-10-03T02:22:13.134Z,966.34
2017-10-03T02:23:13.128Z,966.28
2017-10-03T02:24:13.223Z,966.26
2017-10-03T02:25:13.117Z,966.22
2017-10-03T02:26:13.111Z,966.25
2017-10-03T02:27:13.105Z,966.25
2017-10-03T02:28:13.100Z,966.25
2017-10-03T02:29:13.095Z,966.21
2017-10-03T02:30:13.090Z,966.22
2017-10-03T02:31:13.084Z,966.21
2017-10-03T02:32:13.079Z,966.14
2017-10-03T02:33:13.174Z,966.21
2017-10-03T02:34:13.068Z,966.14
2017-10-03T02:35:13.162Z,966.09
2017-10-03T02:36:13.056Z,966.06
2017-10-03T02:37:13.051Z,966.07
2017-10-03T02:38:13.046Z,966.03
2017-10-03T02:39:13.040Z,966.02
2017-10-03T02:40:13.135Z,966.02
2017-10-03T02:41:13.030Z,966.02
2017-10-03T02:42:13.123Z,966.02
2017-10-03T02:43:13.017Z,965.96
2017-10-03T02:44:13.014Z,965.95
2017-10-03T02:45:13.007Z,965.91
2017-10-03T02:46:13.003Z,965.93
2017-10-03T02:47:12.997Z,965.87
2017-10-03T02:48:12.992Z,965.88
2017-10-03T02:49:12.986Z,965.85
2017-10-03T02:50:12.980Z,965.85
2017-10-03T02:51:12.975Z,965.88
2017-10-03T02:52:12.970Z,965.87
2017-10-03T02:53:12.966Z,965.86
2017-10-03T02:54:12.959Z,965.86
2017-10-03T02:55:12.953Z,965.89
2017-10-03T02:56:12.953Z,965.89
2017-10-03T02:57:12.942Z,965.85
2017-10-03T02:58:12.937Z,965.85
2017-10-03T02:59:12.932Z,965.8
2017-10-03T03:00:12.926Z,965.81
2017-10-03T03:01:12.920Z,965.79
2017-10-03T03:02:12.915Z,965.7
2017-10-03T03:03:13.010Z,965.72
2017-10-03T03:04:12.905Z,965.71
2017-10-03T03:05:12.898Z,965.67
2017-10-03T03:06:12.893Z,965.68
2017-10-03T03:07:12.889Z,965.66
2017-10-03T03:08:12.881Z,965.68
2017-10-03T03:09:12.978Z,965.58
2017-10-03T03:10:12.872Z,965.57
2017-10-03T03:11:12.866Z,965.54
2017-10-03T03:12:12.860Z,965.58
2017-10-03T03:13:12.855Z,965.52
2017-10-03T03:14:12.849Z,965.53
2017-10-03T03:15:12.843Z,965.5
2017-10-03T03:16:12.840Z,965.47
2017-10-03T03:17:12.833Z,965.47
2017-10-03T03:18:12.830Z,965.48
2017-10-03T03:19:12.823Z,965.42
2017-10-03T03:20:12.918Z,965.44
2017-10-03T03:21:12.812Z,965.48
2017-10-03T03:22:12.908Z,965.44
2017-10-03T03:23:12.803Z,965.41
2017-10-03T03:24:12.796Z,965.42
2017-10-03T03:25:12.794Z,965.37
2017-10-03T03:26:12.786Z,965.35
2017-10-03T03:27:12.881Z,965.29
2017-10-03T03:28:12.776Z,965.29
2017-10-03T03:29:12.771Z,965.27
2017-10-03T03:30:12.765Z,965.28
2017-10-03T03:31:12.861Z,965.25
2017-10-03T03:32:12.755Z,965.19
2017-10-03T03:33:12.747Z,965.16
2017-10-03T03:34:12.743Z,965.12
2017-10-03T03:35:12.737Z,965.13
2017-10-03T03:36:12.732Z,965.16
2017-10-03T03:37:12.725Z,965.09
2017-10-03T03:38:12.720Z,965.1
2017-10-03T03:39:12.717Z,965
2017-10-03T03:40:12.712Z,965.06
2017-10-03T03:41:12.715Z,965.04
2017-10-03T03:42:12.699Z,965.09
2017-10-03T03:43:12.794Z,965.12
2017-10-03T03:44:12.688Z,965.12
2017-10-03T03:45:12.684Z,965.15
2017-10-03T03:46:12.679Z,965.16
2017-10-03T03:47:12.673Z,965.2
2017-10-03T03:48:12.667Z,965.14
2017-10-03T03:49:12.662Z,965.14
2017-10-03T03:50:12.658Z,965.08
2017-10-03T03:51:12.652Z,965.1
2017-10-03T03:52:12.646Z,965.09
2017-10-03T03:53:12.641Z,965.09
2017-10-03T03:54:12.636Z,965.06
2017-10-03T03:55:12.729Z,965.03
2017-10-03T03:56:12.624Z,964.96
2017-10-03T03:57:12.619Z,964.97
2017-10-03T03:58:12.612Z,964.95
2017-10-03T03:59:12.708Z,964.92
2017-10-03T04:00:12.603Z,964.87
2017-10-03T04:01:12.700Z,964.82
2017-10-03T04:02:12.592Z,964.82
2017-10-03T04:03:12.586Z,964.84
2017-10-03T04:04:12.580Z,964.83
2017-10-03T04:05:12.575Z,964.78
2017-10-03T04:06:12.570Z,964.78
2017-10-03T04:07:12.565Z,964.77
2017-10-03T04:08:12.559Z,964.8
2017-10-03T04:09:12.553Z,964.75
2017-10-03T04:10:12.648Z,964.75
2017-10-03T04:11:12.543Z,964.72
2017-10-03T04:12:12.536Z,964.67
2017-10-03T04:13:12.532Z,964.68
2017-10-03T04:14:12.527Z,964.69
2017-10-03T04:15:12.623Z,964.66
2017-10-03T04:16:12.517Z,964.65
2017-10-03T04:17:12.510Z,964.6
2017-10-03T04:18:12.506Z,964.65
2017-10-03T04:19:12.498Z,964.58
2017-10-03T04:20:12.498Z,964.67
2017-10-03T04:21:12.489Z,964.61
2017-10-03T04:22:12.482Z,964.62
2017-10-03T04:23:12.477Z,964.61
2017-10-03T04:24:12.473Z,964.68
2017-10-03T04:25:12.466Z,964.58
2017-10-03T04:26:12.461Z,964.61
2017-10-03T04:27:12.555Z,964.63
2017-10-03T04:28:12.450Z,964.57
2017-10-03T04:29:12.443Z,964.65
2017-10-03T04:30:12.439Z,964.57
2017-10-03T04:31:12.433Z,964.61
2017-10-03T04:32:12.427Z,964.54
2017-10-03T04:33:12.420Z,964.47
2017-10-03T04:34:12.415Z,964.51
2017-10-03T04:35:12.410Z,964.43
2017-10-03T04:36:12.405Z,964.44
2017-10-03T04:37:12.398Z,964.43
2017-10-03T04:38:12.393Z,964.42
2017-10-03T04:39:12.388Z,964.4
2017-10-03T04:40:12.381Z,964.37
2017-10-03T04:41:12.377Z,964.45
2017-10-03T04:42:12.371Z,964.4
2017-10-03T04:43:12.364Z,964.39
2017-10-03T04:44:12.359Z,964.36
2017-10-03T04:45:12.354Z,964.35
2017-10-03T04:46:12.349Z,964.42
2017-10-03T04:47:12.343Z,964.39
2017-10-03T04:48:12.338Z,964.37
2017-10-03T04:49:12.332Z,964.42
2017-10-03T04:50:12.325Z,964.42
2017-10-03T04:51:12.420Z,964.4
2017-10-03T04:52:12.313Z,964.42
2017-10-03T04:53:12.308Z,964.44
2017-10-03T04:54:12.303Z,964.43
2017-10-03T04:55:12.398Z,964.42
2017-10-03T04:56:12.291Z,964.44
2017-10-03T04:57:12.285Z,964.43
2017-10-03T04:58:12.282Z,964.43
2017-10-03T04:59:12.274Z,964.43
2017-10-03T05:00:12.270Z,964.37
2017-10-03T05:01:12.263Z,964.4
2017-10-03T05:02:12.357Z,964.34
2017-10-03T05:03:12.253Z,964.34
2017-10-03T05:04:12.247Z,964.28
2017-10-03T05:05:12.241Z,964.36
2017-10-03T05:06:12.236Z,964.33
2017-10-03T05:07:12.230Z,964.28
2017-10-03T05:08:12.223Z,964.28
2017-10-03T05:09:12.217Z,964.22
2017-10-03T05:10:12.312Z,964.29
2017-10-03T05:11:12.207Z,964.3
2017-10-03T05:12:12.200Z,964.28
2017-10-03T05:13:12.194Z,964.31
2017-10-03T05:14:12.190Z,964.26
2017-10-03T05:15:12.184Z,964.33
2017-10-03T05:16:12.176Z,964.34
2017-10-03T05:17:12.172Z,964.31
2017-10-03T05:18:12.166Z,964.27
2017-10-03T05:19:12.159Z,964.29
2017-10-03T05:20:12.155Z,964.24
2017-10-03T05:21:12.250Z,964.24
2017-10-03T05:22:12.143Z,964.25
2017-10-03T05:23:12.137Z,964.26
2017-10-03T05:24:12.131Z,964.18
2017-10-03T05:25:12.127Z,964.26
2017-10-03T05:26:12.220Z,964.28
2017-10-03T05:27:12.114Z,964.24
2017-10-03T05:28:12.109Z,964.23
2017-10-03T05:29:12.103Z,964.28
2017-10-03T05:30:12.197Z,964.27
2017-10-03T05:31:12.091Z,964.28
2017-10-03T05:32:12.086Z,964.25
2017-10-03T05:33:12.080Z,964.31
2017-10-03T05:34:12.074Z,964.37
2017-10-03T05:35:12.069Z,964.43
2017-10-03T05:36:12.164Z,964.47
2017-10-03T05:37:12.057Z,964.4
2017-10-03T05:38:12.051Z,964.43
2017-10-03T05:39:12.054Z,964.47
2017-10-03T05:40:12.043Z,964.44
2017-10-03T05:41:12.033Z,964.42
2017-10-03T05:42:12.029Z,964.42
2017-10-03T05:43:12.122Z,964.4
2017-10-03T05:44:12.016Z,964.47
2017-10-03T05:45:12.011Z,964.49
2017-10-03T05:46:12.104Z,964.54
2017-10-03T05:47:12.000Z,964.54
2017-10-03T05:48:11.994Z,964.49
2017-10-03T05:49:11.987Z,964.56
2017-10-03T05:50:11.982Z,964.53
2017-10-03T05:51:11.976Z,964.51
2017-10-03T05:52:11.970Z,964.5
2017-10-03T05:53:11.964Z,964.53
2017-10-03T05:54:12.060Z,964.58
2017-10-03T05:55:11.953Z,964.62
2017-10-03T05:56:11.947Z,964.61
2017-10-03T05:57:11.941Z,964.63
2017-10-03T05:58:11.935Z,964.66
2017-10-03T05:59:12.031Z,964.63
2017-10-03T06:00:11.924Z,964.61
2017-10-03T06:01:11.918Z,964.61
2017-10-03T06:02:11.913Z,964.61
2017-10-03T06:03:11.905Z,964.65
2017-10-03T06:04:11.901Z,964.62
2017-10-03T06:05:11.896Z,964.62
2017-10-03T06:06:11.891Z,964.68
2017-10-03T06:07:11.884Z,964.62
2017-10-03T06:08:11.878Z,964.66
2017-10-03T06:09:11.873Z,964.66
2017-10-03T06:10:11.866Z,964.63
2017-10-03T06:11:11.861Z,964.64
2017-10-03T06:12:11.855Z,964.66
2017-10-03T06:13:11.850Z,964.73
2017-10-03T06:14:11.843Z,964.77
2017-10-03T06:15:11.839Z,964.77
2017-10-03T06:16:11.831Z,964.73
2017-10-03T06:17:11.828Z,964.78
2017-10-03T06:18:11.820Z,964.79
2017-10-03T06:19:11.838Z,964.8
2017-10-03T06:20:11.809Z,964.72
2017-10-03T06:21:11.803Z,964.73
2017-10-03T06:22:11.824Z,964.84
2017-10-03T06:23:11.792Z,964.99
2017-10-03T06:24:11.786Z,965.36
2017-10-03T06:25:11.779Z,965.68
2017-10-03T06:26:11.775Z,965.7
2017-10-03T06:27:11.772Z,965.46
2017-10-03T06:28:11.864Z,965.49
2017-10-03T06:29:11.757Z,965.73
2017-10-03T06:30:11.752Z,965.92
2017-10-03T06:31:11.746Z,966.16
2017-10-03T06:32:11.741Z,966.2
2017-10-03T06:33:11.734Z,966.45
2017-10-03T06:34:11.830Z,966.73
2017-10-03T06:35:11.723Z,966.87
2017-10-03T06:36:11.718Z,966.79
2017-10-03T06:37:11.712Z,966.54
2017-10-03T06:38:11.706Z,966.11
2017-10-03T06:39:11.702Z,965.9
2017-10-03T06:40:11.694Z,965.89
2017-10-03T06:41:11.788Z,965.91
2017-10-03T06:42:11.683Z,965.99
2017-10-03T06:43:11.676Z,966.16
2017-10-03T06:44:11.771Z,966.02
2017-10-03T06:45:11.663Z,965.92
2017-10-03T06:46:11.660Z,965.91
2017-10-03T06:47:11.652Z,965.95
2017-10-03T06:48:11.647Z,965.85
2017-10-03T06:49:11.640Z,965.71
2017-10-03T06:50:11.635Z,965.84
2017-10-03T06:51:11.780Z,965.88
2017-10-03T06:52:11.623Z,965.96
2017-10-03T06:53:11.717Z,966.01
2017-10-03T06:54:11.611Z,966.11
2017-10-03T06:55:11.605Z,966.24
2017-10-03T06:56:11.600Z,966.35
2017-10-03T06:57:11.594Z,966.42
2017-10-03T06:58:11.587Z,966.45
2017-10-03T06:59:11.583Z,966.52
2017-10-03T07:00:11.576Z,966.68
2017-10-03T07:01:11.571Z,966.81
2017-10-03T07:02:11.564Z,966.9
2017-10-03T07:03:11.557Z,966.95
2017-10-03T07:04:11.552Z,967
2017-10-03T07:05:11.546Z,967.01
2017-10-03T07:06:11.541Z,966.91
2017-10-03T07:07:11.536Z,966.89
2017-10-03T07:08:11.529Z,966.89
2017-10-03T07:09:11.523Z,966.96
2017-10-03T07:10:11.520Z,967.03
2017-10-03T07:11:11.515Z,967.01
2017-10-03T07:12:11.508Z,967.1
2017-10-03T07:13:11.599Z,967.14
2017-10-03T07:14:11.495Z,967.13
2017-10-03T07:15:11.490Z,967.12
2017-10-03T07:16:11.583Z,967.16
2017-10-03T07:17:11.478Z,967.23
2017-10-03T07:18:11.472Z,967.17
2017-10-03T07:19:11.467Z,967.09
2017-10-03T07:20:11.460Z,967
2017-10-03T07:21:11.455Z,966.96
2017-10-03T07:22:11.550Z,967.03
2017-10-03T07:23:11.444Z,967.07
2017-10-03T07:24:11.437Z,967.08
2017-10-03T07:25:11.533Z,967.04
2017-10-03T07:26:11.427Z,967.09
2017-10-03T07:27:11.419Z,967.03
2017-10-03T07:28:11.416Z,967.1
2017-10-03T07:29:11.411Z,967.2
2017-10-03T07:30:11.405Z,967.24
2017-10-03T07:31:11.398Z,967.22
2017-10-03T07:32:11.392Z,967.32
2017-10-03T07:33:11.386Z,967.36
2017-10-03T07:34:11.383Z,967.54
2017-10-03T07:35:11.376Z,967.65
2017-10-03T07:36:11.370Z,967.68
2017-10-03T07:37:11.364Z,967.69
2017-10-03T07:38:11.457Z,967.66
2017-10-03T07:39:11.503Z,967.62
2017-10-03T07:40:11.348Z,967.54
2017-10-03T07:41:11.443Z,967.51
2017-10-03T07:42:11.336Z,967.53
2017-10-03T07:43:11.330Z,967.52
2017-10-03T07:44:11.326Z,967.6
2017-10-03T07:45:11.320Z,967.67
2017-10-03T07:46:11.313Z,967.77
2017-10-03T07:47:11.308Z,967.81
2017-10-03T07:48:11.303Z,967.86
2017-10-03T07:49:11.297Z,967.88
2017-10-03T07:50:11.291Z,967.94
2017-10-03T07:51:11.286Z,968
2017-10-03T07:52:11.279Z,968.08
2017-10-03T07:53:11.274Z,968.1
2017-10-03T07:54:11.268Z,968.13
2017-10-03T07:55:11.364Z,968.13
2017-10-03T07:56:11.258Z,968.21
2017-10-03T07:57:11.252Z,968.26
2017-10-03T07:58:11.247Z,968.33
2017-10-03T07:59:11.241Z,968.41
2017-10-03T08:00:11.253Z,968.49
2017-10-03T08:01:11.230Z,968.61
2017-10-03T08:02:11.224Z,968.66
2017-10-03T08:03:11.220Z,968.73
2017-10-03T08:04:11.314Z,968.82
2017-10-03T08:05:11.208Z,968.87
2017-10-03T08:06:11.304Z,968.84
2017-10-03T08:07:11.197Z,968.83
2017-10-03T08:08:11.194Z,968.81
2017-10-03T08:09:11.287Z,968.8
2017-10-03T08:10:11.188Z,968.81
2017-10-03T08:11:11.179Z,968.77
2017-10-03T08:12:11.170Z,968.77
2017-10-03T08:13:11.163Z,968.84
2017-10-03T08:14:11.160Z,968.86
2017-10-03T08:15:11.154Z,968.83
2017-10-03T08:16:11.147Z,968.81
2017-10-03T08:17:11.143Z,968.85
2017-10-03T08:18:11.135Z,968.87
2017-10-03T08:19:11.131Z,968.93
2017-10-03T08:20:11.227Z,968.94
2017-10-03T08:21:11.120Z,969.01
2017-10-03T08:22:11.116Z,968.99
2017-10-03T08:23:11.210Z,968.97
2017-10-03T08:24:11.103Z,968.96
2017-10-03T08:25:11.099Z,968.89
2017-10-03T08:26:11.093Z,968.83
2017-10-03T08:27:11.087Z,968.82
2017-10-03T08:28:11.182Z,968.81
2017-10-03T08:29:11.075Z,968.83
2017-10-03T08:30:11.070Z,968.85
2017-10-03T08:31:11.065Z,968.86
2017-10-03T08:32:11.059Z,968.8
2017-10-03T08:33:11.157Z,968.82
2017-10-03T08:34:11.049Z,968.87
2017-10-03T08:35:11.043Z,968.92
2017-10-03T08:36:11.037Z,968.97
2017-10-03T08:37:11.032Z,968.95
2017-10-03T08:38:11.027Z,969.03
2017-10-03T08:39:11.022Z,969.13
2017-10-03T08:40:11.015Z,969.13
2017-10-03T08:41:11.011Z,969.17
2017-10-03T08:42:11.005Z,969.27
2017-10-03T08:43:10.999Z,969.35
2017-10-03T08:44:11.094Z,969.37
2017-10-03T08:45:10.988Z,969.42
2017-10-03T08:46:10.982Z,969.54
2017-10-03T08:47:10.977Z,969.65
2017-10-03T08:48:10.972Z,969.74
2017-10-03T08:49:10.967Z,969.8
2017-10-03T08:50:11.062Z,969.71
2017-10-03T08:51:10.955Z,969.68
2017-10-03T08:52:10.951Z,969.76
2017-10-03T08:53:10.945Z,969.81
2017-10-03T08:54:10.939Z,969.87
2017-10-03T08:55:10.933Z,969.85
2017-10-03T08:56:11.028Z,969.87
2017-10-03T08:57:10.922Z,969.92
2017-10-03T08:58:10.917Z,969.97
2017-10-03T08:59:10.911Z,970.07
2017-10-03T09:00:10.907Z,970.15
2017-10-03T09:01:10.901Z,970.21
2017-10-03T09:02:10.895Z,970.25
2017-10-03T09:03:10.889Z,970.25
2017-10-03T09:04:10.885Z,970.28
2017-10-03T09:05:10.889Z,970.33
2017-10-03T09:06:10.873Z,970.33
2017-10-03T09:07:10.868Z,970.37
2017-10-03T09:08:10.863Z,970.33
2017-10-03T09:09:10.858Z,970.27
2017-10-03T09:10:10.852Z,970.32
2017-10-03T09:11:10.846Z,970.26
2017-10-03T09:12:10.840Z,970.23
2017-10-03T09:13:10.835Z,970.2
2017-10-03T09:14:10.831Z,970.41
2017-10-03T09:15:10.825Z,970.52
2017-10-03T09:16:10.920Z,970.54
2017-10-03T09:17:10.812Z,970.48
2017-10-03T09:18:10.808Z,970.45
2017-10-03T09:19:10.904Z,970.5
2017-10-03T09:20:10.798Z,970.49
2017-10-03T09:21:10.793Z,970.54
2017-10-03T09:22:10.787Z,970.51
2017-10-03T09:23:10.781Z,970.53
2017-10-03T09:24:10.776Z,970.59
2017-10-03T09:25:10.771Z,970.59
2017-10-03T09:26:10.765Z,970.63
2017-10-03T09:27:10.761Z,970.67
2017-10-03T09:28:10.754Z,970.68
2017-10-03T09:29:10.749Z,970.71
2017-10-03T09:30:10.743Z,970.73
2017-10-03T09:31:10.738Z,970.86
2017-10-03T09:32:10.732Z,970.9
2017-10-03T09:33:10.728Z,970.92
2017-10-03T09:34:10.722Z,970.93
2017-10-03T09:35:10.816Z,970.94
2017-10-03T09:36:10.711Z,970.93
2017-10-03T09:37:10.706Z,970.97
2017-10-03T09:38:10.701Z,971
2017-10-03T09:39:10.695Z,971.06
2017-10-03T09:40:10.690Z,971.11
2017-10-03T09:41:10.685Z,971.12
2017-10-03T09:42:10.679Z,971.13
2017-10-03T09:43:10.674Z,971.17
2017-10-03T09:44:10.668Z,971.2
2017-10-03T09:45:10.664Z,971.22
2017-10-03T09:46:10.658Z,971.31
2017-10-03T09:47:10.652Z,971.33
2017-10-03T09:48:10.748Z,971.32
2017-10-03T09:49:10.643Z,971.33
2017-10-03T09:50:10.636Z,971.3
2017-10-03T09:51:10.632Z,971.29
2017-10-03T09:52:10.726Z,971.32
2017-10-03T09:53:10.621Z,971.3
2017-10-03T09:54:10.614Z,971.35
2017-10-03T09:55:10.616Z,971.33
2017-10-03T09:56:10.704Z,971.36
2017-10-03T09:57:10.599Z,971.35
2017-10-03T09:58:10.694Z,971.38
2017-10-03T09:59:10.587Z,971.3
2017-10-03T10:00:10.685Z,971.34
2017-10-03T10:01:10.576Z,971.35
2017-10-03T10:02:10.571Z,971.35
2017-10-03T10:03:10.675Z,971.39
2017-10-03T10:04:10.560Z,971.37
2017-10-03T10:05:10.655Z,971.37
2017-10-03T10:06:10.550Z,971.38
2017-10-03T10:07:10.545Z,971.38
2017-10-03T10:08:10.539Z,971.39
2017-10-03T10:09:10.534Z,971.36
2017-10-03T10:10:10.528Z,971.38
2017-10-03T10:11:10.523Z,971.36
2017-10-03T10:12:10.516Z,971.4
2017-10-03T10:13:10.512Z,971.43
2017-10-03T10:14:10.508Z,971.47
2017-10-03T10:15:10.501Z,971.48
2017-10-03T10:16:10.496Z,971.5
2017-10-03T10:17:10.491Z,971.55
2017-10-03T10:18:10.486Z,971.55
2017-10-03T10:19:10.579Z,971.53
2017-10-03T10:20:10.476Z,971.56
2017-10-03T10:21:10.470Z,971.57
2017-10-03T10:22:10.464Z,971.57
2017-10-03T10:23:10.458Z,971.57
2017-10-03T10:24:10.453Z,971.55
2017-10-03T10:25:10.450Z,971.54
2017-10-03T10:26:10.442Z,971.54
2017-10-03T10:27:10.438Z,971.59
2017-10-03T10:28:10.432Z,971.63
2017-10-03T10:29:10.427Z,971.62
2017-10-03T10:30:10.423Z,971.61
2017-10-03T10:31:10.416Z,971.6
2017-10-03T10:32:10.413Z,971.63
2017-10-03T10:33:10.406Z,971.59
2017-10-03T10:34:10.401Z,971.56
2017-10-03T10:35:10.395Z,971.61
2017-10-03T10:36:10.391Z,971.59
2017-10-03T10:37:10.386Z,971.55
2017-10-03T10:38:10.394Z,971.56
2017-10-03T10:39:10.375Z,971.56
2017-10-03T10:40:10.369Z,971.58
2017-10-03T10:41:10.365Z,971.54
2017-10-03T10:42:10.358Z,971.5
2017-10-03T10:43:10.356Z,971.59
2017-10-03T10:44:10.349Z,971.6
2017-10-03T10:45:10.342Z,971.6
2017-10-03T10:46:10.438Z,971.58
2017-10-03T10:47:10.333Z,971.64
2017-10-03T10:48:10.428Z,971.67
2017-10-03T10:49:10.322Z,971.66
2017-10-03T10:50:10.316Z,971.7
2017-10-03T10:51:10.413Z,971.75
2017-10-03T10:52:10.305Z,971.81
2017-10-03T10:53:10.301Z,971.77
2017-10-03T10:54:10.296Z,971.84
2017-10-03T10:55:10.291Z,971.82
2017-10-03T10:56:10.284Z,971.82
2017-10-03T10:57:10.280Z,971.83
2017-10-03T10:58:10.376Z,971.83
2017-10-03T10:59:10.269Z,971.8
2017-10-03T11:00:10.265Z,971.85
2017-10-03T11:01:10.261Z,971.86
2017-10-03T11:02:10.255Z,971.86
2017-10-03T11:03:10.249Z,971.84
2017-10-03T11:04:10.246Z,971.85
2017-10-03T11:05:10.239Z,971.84
2017-10-03T11:06:10.233Z,971.83
2017-10-03T11:07:10.227Z,971.81
2017-10-03T11:08:10.224Z,971.83
2017-10-03T11:09:10.318Z,971.87
2017-10-03T11:10:10.212Z,971.86
2017-10-03T11:11:10.207Z,971.91
2017-10-03T11:12:10.202Z,971.89
2017-10-03T11:13:10.297Z,971.92
2017-10-03T11:14:10.191Z,971.84
2017-10-03T11:15:10.187Z,971.86
2017-10-03T11:16:10.282Z,971.88
2017-10-03T11:17:10.177Z,971.85
2017-10-03T11:18:10.171Z,971.87
2017-10-03T11:19:10.166Z,971.84
2017-10-03T11:20:10.162Z,971.85
2017-10-03T11:21:10.156Z,971.88
2017-10-03T11:22:10.153Z,971.84
2017-10-03T11:23:10.146Z,971.83
2017-10-03T11:24:10.141Z,971.83
2017-10-03T11:25:10.135Z,971.89
2017-10-03T11:26:10.130Z,971.9
2017-10-03T11:27:10.125Z,971.88
2017-10-03T11:28:10.119Z,971.94
2017-10-03T11:29:10.115Z,971.96
2017-10-03T11:30:10.209Z,971.97
2017-10-03T11:31:10.105Z,971.98
2017-10-03T11:32:10.200Z,972.02
2017-10-03T11:33:10.094Z,971.97
2017-10-03T11:34:10.089Z,972.05
2017-10-03T11:35:10.185Z,972
2017-10-03T11:36:10.078Z,972.02
2017-10-03T11:37:10.077Z,972.02
2017-10-03T11:38:10.068Z,972.01
2017-10-03T11:39:10.062Z,972.04
2017-10-03T11:40:10.058Z,972.01
2017-10-03T11:41:10.053Z,972.04
2017-10-03T11:42:10.047Z,972
2017-10-03T11:43:10.047Z,972.06
2017-10-03T11:44:10.041Z,972.03
2017-10-03T11:45:10.033Z,972.08
2017-10-03T11:46:10.027Z,972.06
2017-10-03T11:47:10.024Z,972.1
2017-10-03T11:48:10.017Z,972.05
2017-10-03T11:49:10.013Z,972.08
2017-10-03T11:50:10.008Z,972.09
2017-10-03T11:51:10.004Z,972.06
2017-10-03T11:52:09.997Z,972.09
2017-10-03T11:53:09.993Z,972.09
2017-10-03T11:54:09.986Z,972.06
2017-10-03T11:55:09.983Z,972.03
2017-10-03T11:56:09.977Z,972.05
2017-10-03T11:57:09.972Z,972
2017-10-03T11:58:09.967Z,971.98
2017-10-03T11:59:09.961Z,971.97
2017-10-03T12:00:09.956Z,971.95
2017-10-03T12:01:10.053Z,971.91
2017-10-03T12:02:09.950Z,971.9
2017-10-03T12:03:10.042Z,971.97
2017-10-03T12:04:09.937Z,971.91
2017-10-03T12:05:09.931Z,971.94
2017-10-03T12:06:10.026Z,971.92
2017-10-03T12:07:09.928Z,971.94
2017-10-03T12:08:09.917Z,971.95
2017-10-03T12:09:09.911Z,971.92
2017-10-03T12:10:09.907Z,971.97
2017-10-03T12:11:09.901Z,971.93
2017-10-03T12:12:09.896Z,971.92
2017-10-03T12:13:09.891Z,971.93
2017-10-03T12:14:09.887Z,971.95
2017-10-03T12:15:09.882Z,971.9
2017-10-03T12:16:09.976Z,971.92
2017-10-03T12:17:09.872Z,971.96
2017-10-03T12:18:09.868Z,971.93
2017-10-03T12:19:09.867Z,971.94
2017-10-03T12:20:09.861Z,971.94
2017-10-03T12:21:09.951Z,971.91
2017-10-03T12:22:09.847Z,971.95
2017-10-03T12:23:09.845Z,971.91
2017-10-03T12:24:09.835Z,971.92
2017-10-03T12:25:09.831Z,971.91
2017-10-03T12:26:09.828Z,971.87
2017-10-03T12:27:09.821Z,971.88
2017-10-03T12:28:09.834Z,971.88
2017-10-03T12:29:09.812Z,971.9
2017-10-03T12:30:09.807Z,971.92
2017-10-03T12:31:09.802Z,971.91